Time;durP1;ratioP1;P1;durP2;ratioP2;P2;SDS_P1;SDS_P2;PMS_P1;PMS_P2;Temp;Humidity;BMP_temperature;BMP_pressure;BME280_temperature;BME280_humidity;BME280_pressure;Samples;Min_cycle;Max_cycle;Signal;HPM_P1;HPM_P2
2023/01/12 00:01:30;;;;;;;5.65;1.35;;;;;;;;;;4962188;28;20050;-79
2023/01/12 00:03:57;;;;;;;10.77;1.60;;;;;;;;;;4962409;28;20421;-79
2023/01/12 00:06:24;;;;;;;5.55;1.00;;;;;;;;;;4979857;28;20058;-81
2023/01/12 00:08:51;;;;;;;8.45;1.77;;;;;;;;;;4976656;28;20050;-81
2023/01/12 00:11:19;;;;;;;6.63;1.65;;;;;;;;;;4965158;28;20072;-81
2023/01/12 00:13:46;;;;;;;4.38;1.00;;;;;;;;;;4997339;28;20061;-81
2023/01/12 00:16:38;;;;;;;11.27;2.17;;;;;;;;;;4965514;28;20052;-80
2023/01/12 00:19:21;;;;;;;5.70;1.23;;;;;;;;;;4965559;28;20046;-80
2023/01/12 00:21:57;;;;;;;;;;;;;;;;;;4977535;28;20538;-80
2023/01/12 00:24:28;;;;;;;6.13;1.25;;;;;;;;;;4975350;28;19925;-82
2023/01/12 00:26:56;;;;;;;2.60;1.00;;;;;;;;;;4943036;28;20058;-80
2023/01/12 00:29:23;;;;;;;5.05;1.20;;;;;;;;;;4957326;28;20054;-79
2023/01/12 00:31:51;;;;;;;3.47;1.20;;;;;;;;;;4973163;28;20050;-79
2023/01/12 00:34:18;;;;;;;4.05;1.20;;;;;;;;;;4962138;28;20054;-78
2023/01/12 00:36:45;;;;;;;9.30;1.55;;;;;;;;;;4977406;28;20060;-80
2023/01/12 00:39:13;;;;;;;3.50;1.40;;;;;;;;;;4962179;28;20057;-79
2023/01/12 00:47:11;;;;;;;6.25;1.27;;;;;;;;;;4996279;28;20057;-79
2023/01/12 00:49:39;;;;;;;5.60;1.48;;;;;;;;;;4976945;28;20811;-79
2023/01/12 00:52:09;;;;;;;3.70;1.10;;;;;;;;;;4992534;28;20144;-79
2023/01/12 00:54:41;;;;;;;9.13;1.55;;;;;;;;;;4978362;28;20053;-79
2023/01/12 00:57:08;;;;;;;5.70;1.50;;;;;;;;;;4962376;28;20060;-80
2023/01/12 00:59:35;;;;;;;4.57;1.52;;;;;;;;;;4979380;28;20064;-79
2023/01/12 01:02:03;;;;;;;6.85;1.67;;;;;;;;;;4995906;28;20116;-80
2023/01/12 01:04:30;;;;;;;6.32;1.63;;;;;;;;;;4979494;28;20652;-80
2023/01/12 01:06:57;;;;;;;5.80;1.50;;;;;;;;;;4963703;28;20113;-80
2023/01/12 01:09:23;;;;;;;7.68;1.48;;;;;;;;;;4997449;28;20528;-80
2023/01/12 01:11:50;;;;;;;5.30;1.42;;;;;;;;;;4998643;28;20054;-81
2023/01/12 01:14:17;;;;;;;7.68;1.60;;;;;;;;;;4998716;28;20054;-80
2023/01/12 01:16:43;;;;;;;4.95;1.40;;;;;;;;;;4982927;28;20068;-79
2023/01/12 01:19:10;;;;;;;10.15;1.40;;;;;;;;;;4981165;28;20531;-80
2023/01/12 01:21:38;;;;;;;11.23;2.40;;;;;;;;;;5011737;28;20050;-79
2023/01/12 01:24:08;;;;;;;4.22;1.40;;;;;;;;;;4978497;28;20089;-79
2023/01/12 01:26:35;;;;;;;4.20;1.40;;;;;;;;;;4963933;28;20065;-80
2023/01/12 01:29:02;;;;;;;4.72;1.50;;;;;;;;;;4990433;28;20128;-79
2023/01/12 01:31:32;;;;;;;8.73;2.25;;;;;;;;;;4983588;28;20503;-80
2023/01/12 01:33:58;;;;;;;5.07;1.50;;;;;;;;;;4977571;28;20507;-80
2023/01/12 01:36:25;;;;;;;7.50;1.63;;;;;;;;;;4978151;28;20062;-80
2023/01/12 01:38:52;;;;;;;3.83;1.17;;;;;;;;;;4977588;28;20414;-80
2023/01/12 01:41:27;;;;;;;6.15;1.88;;;;;;;;;;4962667;28;20057;-80
2023/01/12 01:43:59;;;;;;;8.88;1.70;;;;;;;;;;4963466;28;20061;-80
2023/01/12 01:46:35;;;;;;;5.63;1.40;;;;;;;;;;4986709;28;20058;-82
2023/01/12 01:49:19;;;;;;;5.82;1.13;;;;;;;;;;4998129;28;20053;-80
2023/01/12 01:51:46;;;;;;;6.25;1.30;;;;;;;;;;4988269;28;20119;-79
2023/01/12 01:54:13;;;;;;;6.05;1.52;;;;;;;;;;4981254;28;20058;-79
2023/01/12 01:56:39;;;;;;;4.18;1.15;;;;;;;;;;4953580;28;20046;-79
2023/01/12 01:59:13;;;;;;;9.15;1.50;;;;;;;;;;4975475;28;20054;-78
2023/01/12 02:01:40;;;;;;;6.35;1.35;;;;;;;;;;4959901;28;20414;-78
2023/01/12 02:04:07;;;;;;;6.40;1.30;;;;;;;;;;4967252;28;20050;-77
2023/01/12 02:06:34;;;;;;;9.43;1.55;;;;;;;;;;4978492;28;20532;-77
2023/01/12 02:09:13;;;;;;;8.68;1.33;;;;;;;;;;4978480;28;20054;-77
2023/01/12 02:17:55;;;;;;;9.85;2.08;;;;;;;;;;4997523;28;20053;-78
2023/01/12 02:20:41;;;;;;;3.28;1.42;;;;;;;;;;4993902;28;20050;-77
2023/01/12 02:23:26;;;;;;;7.05;1.40;;;;;;;;;;4994220;28;20065;-77
2023/01/12 02:26:24;;;;;;;8.45;1.85;;;;;;;;;;4994607;28;20061;-77
2023/01/12 02:29:21;;;;;;;6.22;1.50;;;;;;;;;;4994290;28;20065;-77
2023/01/12 02:32:20;;;;;;;6.32;1.80;;;;;;;;;;4994208;28;20689;-78
2023/01/12 02:34:47;;;;;;;2.90;1.10;;;;;;;;;;4941740;28;20057;-77
2023/01/12 02:37:43;;;;;;;6.85;1.13;;;;;;;;;;4994194;28;20054;-77
2023/01/12 02:40:20;;;;;;;3.05;1.38;;;;;;;;;;4994581;28;20053;-78
2023/01/12 02:43:08;;;;;;;4.60;1.48;;;;;;;;;;4979953;28;20060;-80
2023/01/12 02:45:53;;;;;;;6.18;1.20;;;;;;;;;;4980590;28;20066;-80
2023/01/12 02:48:33;;;;;;;2.75;0.90;;;;;;;;;;4975655;28;20499;-78
2023/01/12 02:51:32;;;;;;;4.70;1.20;;;;;;;;;;4974949;28;20055;-79
2023/01/12 02:54:02;;;;;;;6.25;1.77;;;;;;;;;;4961481;28;20471;-79
2023/01/12 02:56:40;;;;;;;7.30;1.33;;;;;;;;;;4978354;28;20188;-78
2023/01/12 02:59:25;;;;;;;5.82;1.00;;;;;;;;;;4977651;28;20133;-78
2023/01/12 03:01:52;;;;;;;2.40;1.13;;;;;;;;;;4977926;28;20498;-78
2023/01/12 03:04:19;;;;;;;6.93;1.52;;;;;;;;;;4993786;28;20064;-78
2023/01/12 03:06:55;;;;;;;3.63;1.00;;;;;;;;;;4977765;28;20127;-79
2023/01/12 03:09:27;;;;;;;5.68;1.40;;;;;;;;;;5010792;28;20057;-78
2023/01/12 03:11:57;;;;;;;5.18;1.20;;;;;;;;;;4962640;28;20175;-78
2023/01/12 03:14:24;;;;;;;4.75;1.00;;;;;;;;;;4977380;28;20141;-78
2023/01/12 03:16:50;;;;;;;6.75;1.30;;;;;;;;;;4977566;28;20498;-78
2023/01/12 03:19:19;;;;;;;4.80;1.35;;;;;;;;;;4977698;28;20526;-80
2023/01/12 03:22:06;;;;;;;5.95;1.40;;;;;;;;;;4978939;28;20054;-79
2023/01/12 03:24:36;;;;;;;5.13;1.58;;;;;;;;;;4961778;28;20054;-78
2023/01/12 03:27:14;;;;;;;6.72;1.55;;;;;;;;;;4977473;28;20064;-79
2023/01/12 03:29:54;;;;;;;3.95;0.85;;;;;;;;;;4977396;28;20058;-78
2023/01/12 03:32:21;;;;;;;3.40;1.20;;;;;;;;;;4972548;28;20056;-78
2023/01/12 03:34:48;;;;;;;6.32;1.30;;;;;;;;;;4973886;28;20072;-79
2023/01/12 03:37:25;;;;;;;9.85;1.42;;;;;;;;;;4958028;28;20050;-79
2023/01/12 03:40:04;;;;;;;5.15;1.17;;;;;;;;;;4973907;28;20062;-77
2023/01/12 03:42:37;;;;;;;7.93;1.98;;;;;;;;;;4972987;28;20491;-78
2023/01/12 03:45:26;;;;;;;4.32;1.08;;;;;;;;;;4985877;28;20056;-78
2023/01/12 03:47:55;;;;;;;4.25;1.13;;;;;;;;;;4993274;28;20057;-78
2023/01/12 03:50:28;;;;;;;5.22;1.10;;;;;;;;;;4961719;28;20054;-78
2023/01/12 03:52:54;;;;;;;9.65;1.98;;;;;;;;;;4977220;28;20050;-78
2023/01/12 03:55:22;;;;;;;6.70;1.40;;;;;;;;;;4966065;28;20054;-78
2023/01/12 03:57:49;;;;;;;6.63;1.52;;;;;;;;;;4960811;28;20089;-78
2023/01/12 04:00:16;;;;;;;6.35;1.20;;;;;;;;;;4945230;28;20061;-78
2023/01/12 04:02:43;;;;;;;7.22;1.23;;;;;;;;;;5006468;28;20054;-78
2023/01/12 04:05:11;;;;;;;9.48;1.70;;;;;;;;;;4956019;28;20076;-77
2023/01/12 04:07:43;;;;;;;6.63;1.85;;;;;;;;;;4980014;28;20074;-77
2023/01/12 04:10:10;;;;;;;5.13;1.17;;;;;;;;;;4993148;28;20033;-78
2023/01/12 04:12:36;;;;;;;8.15;1.17;;;;;;;;;;4963824;28;20060;-78
2023/01/12 04:15:04;;;;;;;4.05;1.10;;;;;;;;;;4971922;28;20064;-78
2023/01/12 04:17:32;;;;;;;7.88;2.60;;;;;;;;;;4980815;28;20085;-78
2023/01/12 04:19:58;;;;;;;7.47;1.20;;;;;;;;;;4980168;28;20133;-77
2023/01/12 04:22:43;;;;;;;7.45;1.52;;;;;;;;;;4960618;28;20518;-77
2023/01/12 04:25:16;;;;;;;8.63;1.30;;;;;;;;;;4978984;28;20478;-78
2023/01/12 04:27:52;;;;;;;10.57;1.20;;;;;;;;;;4960613;28;20168;-78
2023/01/12 04:30:22;;;;;;;8.13;2.13;;;;;;;;;;4976633;28;20085;-78
2023/01/12 04:32:50;;;;;;;4.78;1.33;;;;;;;;;;4992016;28;20120;-78
2023/01/12 04:35:17;;;;;;;9.65;1.30;;;;;;;;;;4976738;28;20062;-78
2023/01/12 04:37:44;;;;;;;10.93;2.53;;;;;;;;;;4976523;28;20475;-78
2023/01/12 04:40:12;;;;;;;9.82;2.00;;;;;;;;;;4960946;28;20506;-78
2023/01/12 04:42:59;;;;;;;6.82;2.42;;;;;;;;;;4994514;28;20064;-80
2023/01/12 04:45:30;;;;;;;8.13;1.60;;;;;;;;;;4968775;28;20084;-79
2023/01/12 04:48:06;;;;;;;5.45;1.95;;;;;;;;;;4965519;28;20097;-79
2023/01/12 04:50:32;;;;;;;6.72;1.45;;;;;;;;;;5000428;28;20060;-78
2023/01/12 04:53:04;;;;;;;9.38;1.63;;;;;;;;;;4968151;28;20719;-78
2023/01/12 04:55:31;;;;;;;8.52;1.73;;;;;;;;;;4977024;28;20061;-78
2023/01/12 04:57:58;;;;;;;7.60;3.35;;;;;;;;;;4976545;28;20062;-78
2023/01/12 05:00:25;;;;;;;8.23;1.90;;;;;;;;;;4960923;28;20057;-77
2023/01/12 05:03:00;;;;;;;7.38;3.00;;;;;;;;;;4960673;28;20054;-77
2023/01/12 05:05:29;;;;;;;7.32;2.30;;;;;;;;;;4963529;28;20050;-77
2023/01/12 05:10:54;;;;;;;8.35;2.08;;;;;;;;;;4995768;28;20086;-77
2023/01/12 05:13:25;;;;;;;9.50;2.13;;;;;;;;;;4981072;28;20085;-77
2023/01/12 05:15:52;;;;;;;6.40;2.13;;;;;;;;;;4981674;28;20060;-77
2023/01/12 05:18:18;;;;;;;7.05;2.28;;;;;;;;;;4996717;28;20058;-77
2023/01/12 05:20:45;;;;;;;6.50;2.05;;;;;;;;;;4996444;28;20057;-77
2023/01/12 05:23:12;;;;;;;5.70;1.73;;;;;;;;;;4995805;28;20042;-77
2023/01/12 05:25:39;;;;;;;5.97;1.40;;;;;;;;;;4963634;28;20105;-77
2023/01/12 05:28:05;;;;;;;9.10;1.40;;;;;;;;;;4995862;28;20089;-77
2023/01/12 05:30:32;;;;;;;13.55;2.28;;;;;;;;;;4996120;28;20219;-77
2023/01/12 05:32:59;;;;;;;7.03;2.25;;;;;;;;;;4979774;28;20072;-78
2023/01/12 05:35:26;;;;;;;14.23;1.90;;;;;;;;;;4979889;28;20049;-78
2023/01/12 05:37:55;;;;;;;9.50;1.92;;;;;;;;;;4960169;28;20046;-77
2023/01/12 05:40:22;;;;;;;12.13;3.13;;;;;;;;;;4976709;28;20089;-78
2023/01/12 05:45:35;;;;;;;8.27;1.45;;;;;;;;;;4965567;28;20141;-78
2023/01/12 05:48:02;;;;;;;10.43;1.90;;;;;;;;;;4962015;28;20085;-78
2023/01/12 05:50:29;;;;;;;8.82;1.70;;;;;;;;;;4995916;28;20093;-77
2023/01/12 05:52:55;;;;;;;6.68;1.50;;;;;;;;;;4995723;28;20060;-78
2023/01/12 05:55:22;;;;;;;8.15;1.45;;;;;;;;;;4994794;28;20058;-78
2023/01/12 05:57:49;;;;;;;4.75;1.73;;;;;;;;;;5001241;28;20117;-78
2023/01/12 06:00:17;;;;;;;10.55;2.28;;;;;;;;;;4996434;28;20085;-78
2023/01/12 06:02:43;;;;;;;8.05;1.20;;;;;;;;;;4979749;28;20157;-77
2023/01/12 06:05:10;;;;;;;9.98;1.30;;;;;;;;;;4979898;28;20137;-77
2023/01/12 06:07:37;;;;;;;9.55;1.20;;;;;;;;;;4995274;28;20062;-78
2023/01/12 06:10:04;;;;;;;7.70;1.50;;;;;;;;;;4995541;28;20532;-77
2023/01/12 06:15:16;;;;;;;8.00;1.42;;;;;;;;;;4998054;28;20097;-77
2023/01/12 06:17:43;;;;;;;6.95;1.83;;;;;;;;;;4995116;28;20046;-77
2023/01/12 06:20:13;;;;;;;10.57;2.50;;;;;;;;;;4995343;28;20131;-77
2023/01/12 06:22:40;;;;;;;8.00;1.60;;;;;;;;;;4979342;28;20133;-77
2023/01/12 06:25:07;;;;;;;7.32;1.42;;;;;;;;;;4979130;28;20053;-78
2023/01/12 06:27:34;;;;;;;8.43;1.27;;;;;;;;;;4994511;28;20100;-77
2023/01/12 06:30:01;;;;;;;7.50;1.15;;;;;;;;;;4979313;28;20057;-77
2023/01/12 06:32:28;;;;;;;6.80;1.52;;;;;;;;;;4981041;28;20058;-81
2023/01/12 06:34:57;;;;;;;14.50;1.63;;;;;;;;;;4998104;28;20137;-80
2023/01/12 06:37:32;;;;;;;5.20;1.30;;;;;;;;;;4964018;28;20050;-80
2023/01/12 06:39:59;;;;;;;7.07;1.95;;;;;;;;;;4971296;28;20076;-84
2023/01/12 06:42:28;;;;;;;12.88;1.85;;;;;;;;;;4981872;28;20148;-80
2023/01/12 06:44:55;;;;;;;6.80;2.15;;;;;;;;;;4982145;28;20053;-80
2023/01/12 06:47:22;;;;;;;5.65;1.35;;;;;;;;;;4965406;28;20057;-80
2023/01/12 06:49:50;;;;;;;7.55;1.40;;;;;;;;;;4998360;28;20062;-80
2023/01/12 06:52:21;;;;;;;8.18;1.20;;;;;;;;;;4982743;28;20076;-79
2023/01/12 06:54:47;;;;;;;7.35;1.10;;;;;;;;;;4980666;28;20111;-85
2023/01/12 06:57:14;;;;;;;4.82;0.90;;;;;;;;;;4981404;28;20089;-84
2023/01/12 06:59:41;;;;;;;8.40;1.50;;;;;;;;;;4980799;28;20392;-86
2023/01/12 07:02:12;;;;;;;6.80;1.50;;;;;;;;;;4964758;28;20057;-85
2023/01/12 07:04:39;;;;;;;15.32;3.47;;;;;;;;;;4964017;28;20145;-85
2023/01/12 07:07:08;;;;;;;6.72;1.83;;;;;;;;;;4980027;28;20057;-86
2023/01/12 07:09:35;;;;;;;7.30;1.42;;;;;;;;;;4965049;28;20149;-85
2023/01/12 07:12:02;;;;;;;5.90;1.30;;;;;;;;;;4964950;28;20061;-84
2023/01/12 07:14:29;;;;;;;7.82;1.65;;;;;;;;;;4965895;28;20058;-85
2023/01/12 07:16:56;;;;;;;9.13;1.15;;;;;;;;;;4975268;28;20053;-84
2023/01/12 07:19:23;;;;;;;7.43;1.20;;;;;;;;;;4984243;28;20140;-84
2023/01/12 07:21:49;;;;;;;5.28;1.50;;;;;;;;;;5001078;28;20054;-85
2023/01/12 07:24:16;;;;;;;3.35;1.75;;;;;;;;;;4982879;28;20060;-84
2023/01/12 07:26:43;;;;;;;8.65;2.00;;;;;;;;;;4965421;28;20108;-87
2023/01/12 07:29:10;;;;;;;11.32;2.75;;;;;;;;;;4965701;28;20132;-84
2023/01/12 07:31:37;;;;;;;7.97;1.00;;;;;;;;;;4959290;28;20074;-84
2023/01/12 07:34:04;;;;;;;4.85;1.08;;;;;;;;;;4967201;28;20050;-85
2023/01/12 07:36:31;;;;;;;9.40;1.83;;;;;;;;;;4949757;28;20444;-85
2023/01/12 07:38:59;;;;;;;6.10;1.80;;;;;;;;;;4963613;28;20065;-85
2023/01/12 07:44:11;;;;;;;8.57;1.23;;;;;;;;;;5019200;28;20046;-85
2023/01/12 07:46:38;;;;;;;7.88;1.42;;;;;;;;;;4987373;28;20061;-85
2023/01/12 07:49:05;;;;;;;4.57;1.17;;;;;;;;;;4986819;28;20073;-83
2023/01/12 07:51:32;;;;;;;7.47;1.45;;;;;;;;;;4984352;28;20081;-83
2023/01/12 07:53:59;;;;;;;6.10;1.20;;;;;;;;;;5001168;28;20053;-83
2023/01/12 07:56:25;;;;;;;4.72;1.45;;;;;;;;;;5003198;28;20058;-84
2023/01/12 07:58:53;;;;;;;7.63;1.30;;;;;;;;;;5001918;28;20050;-83
2023/01/12 08:01:20;;;;;;;7.93;1.70;;;;;;;;;;5002464;28;20053;-87
2023/01/12 08:03:47;;;;;;;5.22;1.30;;;;;;;;;;4986790;28;20053;-82
2023/01/12 08:06:14;;;;;;;7.70;1.70;;;;;;;;;;5001731;28;20042;-84
2023/01/12 08:08:41;;;;;;;6.95;1.30;;;;;;;;;;4967015;28;20114;-87
2023/01/12 08:11:08;;;;;;;6.20;1.02;;;;;;;;;;4964894;28;20092;-80
2023/01/12 08:13:36;;;;;;;6.95;1.75;;;;;;;;;;4995120;28;20367;-79
2023/01/12 08:16:11;;;;;;;5.20;1.10;;;;;;;;;;4994811;28;20418;-82
2023/01/12 08:19:15;;;;;;;8.27;2.10;;;;;;;;;;4980219;28;20062;-83
2023/01/12 08:21:44;;;;;;;5.80;0.90;;;;;;;;;;4983166;28;20109;-82
2023/01/12 08:24:13;;;;;;;6.95;1.27;;;;;;;;;;4966044;28;20073;-81
2023/01/12 08:26:41;;;;;;;3.92;1.00;;;;;;;;;;4979740;28;20050;-79
2023/01/12 08:29:31;;;;;;;2.80;0.82;;;;;;;;;;4975423;28;20061;-78
2023/01/12 08:32:02;;;;;;;5.50;0.88;;;;;;;;;;4983157;28;20506;-78
2023/01/12 08:34:31;;;;;;;7.17;0.93;;;;;;;;;;4963445;28;20053;-79
2023/01/12 08:36:58;;;;;;;4.05;1.25;;;;;;;;;;4994507;28;20089;-80
2023/01/12 08:39:28;;;;;;;7.22;1.35;;;;;;;;;;4963612;28;20076;-83
2023/01/12 08:41:55;;;;;;;3.88;1.48;;;;;;;;;;4994782;28;20090;-82
2023/01/12 08:44:22;;;;;;;6.28;1.20;;;;;;;;;;4977500;28;20045;-80
2023/01/12 08:46:51;;;;;;;5.63;1.58;;;;;;;;;;4994447;28;20141;-81
2023/01/12 08:49:23;;;;;;;4.30;0.93;;;;;;;;;;4977537;28;20061;-81
2023/01/12 08:51:50;;;;;;;4.50;1.20;;;;;;;;;;4977927;28;20058;-81
2023/01/12 08:54:18;;;;;;;4.43;1.02;;;;;;;;;;4977998;28;20050;-81
2023/01/12 08:56:45;;;;;;;6.78;0.98;;;;;;;;;;4962733;28;20054;-81
2023/01/12 08:59:12;;;;;;;4.68;1.17;;;;;;;;;;4977384;28;20481;-81
2023/01/12 09:01:38;;;;;;;6.22;1.60;;;;;;;;;;4977726;28;20176;-81
2023/01/12 09:04:06;;;;;;;6.18;1.98;;;;;;;;;;4994867;28;20406;-81
2023/01/12 09:06:38;;;;;;;3.33;0.73;;;;;;;;;;4977866;28;20068;-81
2023/01/12 09:09:08;;;;;;;6.38;1.10;;;;;;;;;;4977802;28;20430;-81
2023/01/12 09:11:36;;;;;;;5.85;1.17;;;;;;;;;;4978126;28;20503;-81
2023/01/12 09:14:03;;;;;;;2.83;0.98;;;;;;;;;;4976970;28;20125;-81
2023/01/12 09:16:30;;;;;;;10.20;1.73;;;;;;;;;;4977920;28;20054;-81
2023/01/12 09:18:57;;;;;;;8.02;1.17;;;;;;;;;;4993807;28;20061;-81
2023/01/12 09:21:25;;;;;;;5.13;1.52;;;;;;;;;;4994147;28;20085;-81
2023/01/12 09:23:53;;;;;;;5.05;1.60;;;;;;;;;;4977944;28;20069;-80
2023/01/12 09:26:22;;;;;;;8.23;1.15;;;;;;;;;;4962675;28;20112;-81
2023/01/12 09:28:50;;;;;;;4.63;1.40;;;;;;;;;;4978021;28;20089;-81
2023/01/12 09:31:19;;;;;;;6.93;1.55;;;;;;;;;;4981943;28;20050;-81
2023/01/12 09:33:46;;;;;;;9.68;2.22;;;;;;;;;;4965757;28;20050;-81
2023/01/12 09:36:21;;;;;;;4.88;1.30;;;;;;;;;;4997403;28;20054;-81
2023/01/12 09:38:48;;;;;;;6.55;1.73;;;;;;;;;;4980849;28;20053;-81
2023/01/12 09:47:31;;;;;;;6.97;1.20;;;;;;;;;;4986838;28;20058;-81
2023/01/12 09:50:06;;;;;;;4.63;1.25;;;;;;;;;;4997496;28;20141;-82
2023/01/12 09:52:43;;;;;;;10.05;1.48;;;;;;;;;;4981841;28;20533;-81
2023/01/12 09:55:21;;;;;;;7.70;1.48;;;;;;;;;;4981331;28;20077;-81
2023/01/12 09:58:06;;;;;;;5.40;2.20;;;;;;;;;;4965484;28;20060;-81
2023/01/12 10:00:33;;;;;;;6.82;0.98;;;;;;;;;;4996985;28;20085;-81
2023/01/12 10:03:02;;;;;;;8.30;1.42;;;;;;;;;;4966116;28;20434;-81
2023/01/12 10:05:51;;;;;;;4.57;1.63;;;;;;;;;;4997912;28;20548;-85
2023/01/12 10:08:30;;;;;;;7.88;1.50;;;;;;;;;;4983536;28;20145;-80
2023/01/12 10:11:23;;;;;;;5.18;1.02;;;;;;;;;;4983619;28;20050;-83
2023/01/12 10:14:18;;;;;;;7.00;1.15;;;;;;;;;;4956641;28;20057;-84
2023/01/12 10:16:51;;;;;;;5.05;1.02;;;;;;;;;;5000463;28;20065;-82
2023/01/12 10:19:29;;;;;;;7.18;0.90;;;;;;;;;;4998923;28;20331;-83
2023/01/12 10:21:56;;;;;;;5.90;1.30;;;;;;;;;;4966790;28;20060;-83
2023/01/12 10:24:23;;;;;;;4.85;1.20;;;;;;;;;;4964600;28;20050;-82
2023/01/12 10:26:57;;;;;;;3.35;0.90;;;;;;;;;;4987434;28;20052;-85
2023/01/12 10:29:23;;;;;;;;;;;;;;;;;;4967815;28;20954;-85
2023/01/12 10:31:50;;;;;;;4.18;1.10;;;;;;;;;;4990373;28;19928;-84
2023/01/12 10:34:17;;;;;;;6.72;2.28;;;;;;;;;;4960822;28;20055;-83
2023/01/12 10:36:48;;;;;;;5.05;1.77;;;;;;;;;;4993946;28;20062;-85
2023/01/12 10:39:43;;;;;;;5.10;1.02;;;;;;;;;;4973590;28;20092;-84
2023/01/12 10:45:28;;;;;;;8.20;2.40;;;;;;;;;;4971181;28;20100;-83
2023/01/12 10:47:56;;;;;;;5.68;1.15;;;;;;;;;;4973360;28;20054;-83
2023/01/12 10:50:31;;;;;;;5.10;0.73;;;;;;;;;;4983503;28;20085;-82
2023/01/12 10:53:08;;;;;;;6.53;1.10;;;;;;;;;;4974601;28;20088;-83
2023/01/12 10:55:38;;;;;;;4.82;0.98;;;;;;;;;;4980762;28;20053;-84
2023/01/12 10:58:25;;;;;;;2.13;0.77;;;;;;;;;;4989789;28;20133;-83
2023/01/12 11:00:53;;;;;;;2.33;0.98;;;;;;;;;;4970215;28;20050;-84
2023/01/12 11:03:38;;;;;;;4.50;0.80;;;;;;;;;;4957069;28;20054;-84
2023/01/12 11:06:27;;;;;;;5.28;1.10;;;;;;;;;;4984818;28;20050;-84
2023/01/12 11:08:54;;;;;;;5.95;1.00;;;;;;;;;;4981252;28;20056;-84
2023/01/12 11:11:29;;;;;;;3.50;0.75;;;;;;;;;;5003475;23;20520;-84
2023/01/12 11:14:05;;;;;;;5.43;1.85;;;;;;;;;;4968003;28;20144;-83
2023/01/12 11:16:46;;;;;;;4.80;0.60;;;;;;;;;;4969956;28;20108;-85
2023/01/12 11:19:34;;;;;;;2.45;0.50;;;;;;;;;;4972905;28;20065;-84
2023/01/12 11:22:10;;;;;;;3.58;1.05;;;;;;;;;;4966490;28;20081;-83
2023/01/12 11:24:48;;;;;;;4.63;0.77;;;;;;;;;;4965389;28;20047;-84
2023/01/12 11:27:38;;;;;;;3.00;0.80;;;;;;;;;;4974573;28;20058;-85
2023/01/12 11:30:17;;;;;;;1.95;1.13;;;;;;;;;;4962511;28;20451;-84
2023/01/12 11:32:54;;;;;;;6.30;1.75;;;;;;;;;;4970557;28;20054;-85
2023/01/12 11:35:28;;;;;;;2.40;0.80;;;;;;;;;;4979402;28;20050;-84
2023/01/12 11:37:58;;;;;;;2.92;1.40;;;;;;;;;;4993874;28;20065;-84
2023/01/12 11:40:34;;;;;;;2.80;0.50;;;;;;;;;;4963978;28;20461;-84
2023/01/12 11:46:06;;;;;;;4.00;0.90;;;;;;;;;;5001528;28;20064;-84
2023/01/12 11:48:38;;;;;;;3.53;1.20;;;;;;;;;;4976391;28;20053;-84
2023/01/12 11:51:05;;;;;;;3.92;0.70;;;;;;;;;;4986393;28;20058;-84
2023/01/12 11:53:33;;;;;;;4.63;0.80;;;;;;;;;;4951037;28;20054;-84
2023/01/12 11:56:26;;;;;;;1.40;0.70;;;;;;;;;;4978352;28;20049;-84
2023/01/12 11:58:59;;;;;;;;;;;;;;;;;;4971979;28;20041;-84
2023/01/12 12:01:39;;;;;;;2.45;0.70;;;;;;;;;;4993959;28;19922;-85
2023/01/12 12:04:33;;;;;;;2.97;0.50;;;;;;;;;;4983162;28;20061;-83
2023/01/12 12:07:34;;;;;;;1.98;0.50;;;;;;;;;;4967072;28;20050;-84
2023/01/12 12:10:24;;;;;;;4.25;0.60;;;;;;;;;;4994926;28;20042;-85
2023/01/12 12:13:20;;;;;;;0.98;0.40;;;;;;;;;;4967524;28;20498;-82
2023/01/12 12:16:17;;;;;;;2.22;1.08;;;;;;;;;;4991411;28;20061;-82
2023/01/12 12:18:56;;;;;;;4.43;1.00;;;;;;;;;;4968620;28;20431;-83
2023/01/12 12:21:29;;;;;;;1.42;1.00;;;;;;;;;;4990518;28;20156;-85
2023/01/12 12:24:19;;;;;;;4.60;0.90;;;;;;;;;;4988952;28;20457;-85
2023/01/12 12:27:12;;;;;;;1.63;0.90;;;;;;;;;;4993995;28;20057;-84
2023/01/12 12:30:01;;;;;;;2.00;0.77;;;;;;;;;;4990043;28;20045;-85
2023/01/12 12:32:40;;;;;;;1.88;0.80;;;;;;;;;;4997786;28;20142;-85
2023/01/12 12:35:19;;;;;;;1.27;0.45;;;;;;;;;;4978152;28;20085;-86
2023/01/12 12:37:52;;;;;;;1.75;0.50;;;;;;;;;;4984733;28;20054;-85
2023/01/12 12:46:35;;;;;;;2.13;0.50;;;;;;;;;;4974174;28;20374;-87
2023/01/12 12:49:04;;;;;;;4.07;0.70;;;;;;;;;;4953544;28;20069;-86
2023/01/12 12:51:33;;;;;;;3.10;0.93;;;;;;;;;;4962592;28;20146;-86
2023/01/12 12:54:01;;;;;;;2.78;0.90;;;;;;;;;;4975493;28;20554;-85
2023/01/12 12:56:30;;;;;;;1.23;0.38;;;;;;;;;;4963508;28;20057;-86
2023/01/12 12:59:00;;;;;;;1.08;0.50;;;;;;;;;;4985837;28;20050;-86
2023/01/12 13:01:27;;;;;;;2.22;0.82;;;;;;;;;;4961234;28;20382;-86
2023/01/12 13:03:56;;;;;;;3.70;0.93;;;;;;;;;;4998478;28;20257;-86
2023/01/12 13:06:30;;;;;;;2.35;0.98;;;;;;;;;;5008168;28;20449;-85
2023/01/12 13:09:20;;;;;;;1.08;0.47;;;;;;;;;;4982126;28;20041;-86
2023/01/12 13:11:59;;;;;;;1.88;0.88;;;;;;;;;;4994338;28;20085;-85
2023/01/12 13:14:32;;;;;;;3.30;1.55;;;;;;;;;;4994178;28;20049;-85
2023/01/12 13:17:18;;;;;;;4.05;1.20;;;;;;;;;;4986277;28;20454;-85
2023/01/12 13:20:01;;;;;;;2.25;0.75;;;;;;;;;;4991574;28;20137;-85
2023/01/12 13:22:48;;;;;;;2.83;1.13;;;;;;;;;;4979302;28;20499;-85
2023/01/12 13:25:15;;;;;;;1.77;0.50;;;;;;;;;;4968036;28;20046;-85
2023/01/12 13:30:29;;;;;;;1.35;0.73;;;;;;;;;;4995805;28;20073;-83
2023/01/12 13:33:14;;;;;;;2.33;0.73;;;;;;;;;;4991545;28;20057;-82
2023/01/12 13:35:45;;;;;;;3.45;0.75;;;;;;;;;;4993835;28;20057;-85
2023/01/12 13:38:20;;;;;;;2.97;0.60;;;;;;;;;;4996372;28;20065;-81
2023/01/12 13:40:48;;;;;;;1.95;0.80;;;;;;;;;;4994261;28;20081;-83
2023/01/12 13:43:26;;;;;;;2.45;0.95;;;;;;;;;;4977776;28;20572;-85
2023/01/12 13:45:58;;;;;;;1.95;0.70;;;;;;;;;;4975217;28;20085;-84
2023/01/12 13:48:27;;;;;;;1.63;0.82;;;;;;;;;;4980260;28;20069;-85
2023/01/12 13:51:03;;;;;;;3.30;0.70;;;;;;;;;;4965001;28;20398;-84
2023/01/12 13:53:31;;;;;;;1.95;0.40;;;;;;;;;;4989276;28;20538;-84
2023/01/12 13:56:03;;;;;;;2.15;0.93;;;;;;;;;;4978965;28;20042;-87
2023/01/12 13:58:42;;;;;;;2.33;0.98;;;;;;;;;;4980549;28;20054;-88
2023/01/12 14:01:33;;;;;;;4.00;0.85;;;;;;;;;;4964020;28;20141;-84
2023/01/12 14:04:03;;;;;;;2.67;1.48;;;;;;;;;;4977696;28;20107;-85
2023/01/12 14:06:42;;;;;;;2.05;0.93;;;;;;;;;;4998995;28;20046;-84
2023/01/12 14:09:37;;;;;;;3.38;2.00;;;;;;;;;;4998751;28;20058;-85
2023/01/12 14:12:26;;;;;;;2.13;0.95;;;;;;;;;;5010356;28;20109;-85
2023/01/12 14:18:24;;;;;;;2.95;0.43;;;;;;;;;;4997277;28;20060;-85
2023/01/12 14:20:55;;;;;;;2.60;0.70;;;;;;;;;;4967920;28;20045;-84
2023/01/12 14:23:26;;;;;;;2.00;0.45;;;;;;;;;;4975176;28;20112;-86
2023/01/12 14:26:09;;;;;;;0.95;0.32;;;;;;;;;;4989644;28;20258;-84
2023/01/12 14:28:37;;;;;;;0.70;0.35;;;;;;;;;;4998405;28;20049;-85
2023/01/12 14:31:06;;;;;;;2.92;1.10;;;;;;;;;;4965852;28;20058;-85
2023/01/12 14:33:34;;;;;;;3.97;1.40;;;;;;;;;;4956942;28;20042;-83
2023/01/12 14:36:10;;;;;;;6.13;1.60;;;;;;;;;;4961286;28;20065;-84
2023/01/12 14:38:39;;;;;;;2.63;1.17;;;;;;;;;;4982883;28;20054;-84
2023/01/12 14:46:23;;;;;;;2.35;0.82;;;;;;;;;;4994774;28;20067;-82
2023/01/12 14:46:51;;;;;;;2.70;1.00;;;;;;;;;;4994206;28;20406;-83
2023/01/12 14:49:29;;;;;;;1.55;0.70;;;;;;;;;;4967138;28;20054;-83
2023/01/12 14:52:16;;;;;;;6.93;1.00;;;;;;;;;;4965069;28;20057;-80
2023/01/12 14:54:46;;;;;;;2.35;0.70;;;;;;;;;;4981173;28;20110;-78
2023/01/12 14:57:29;;;;;;;1.38;0.63;;;;;;;;;;4977434;28;20108;-79
2023/01/12 14:59:56;;;;;;;5.35;0.60;;;;;;;;;;4962973;28;20483;-82
2023/01/12 15:02:37;;;;;;;2.55;0.88;;;;;;;;;;4989819;28;20069;-81
2023/01/12 15:05:08;;;;;;;2.25;0.77;;;;;;;;;;4980413;28;20058;-82
2023/01/12 15:07:55;;;;;;;3.10;0.70;;;;;;;;;;4983629;28;20058;-83
2023/01/12 15:10:33;;;;;;;1.05;0.68;;;;;;;;;;4992504;28;20399;-82
2023/01/12 15:13:26;;;;;;;1.20;0.45;;;;;;;;;;4989448;28;20054;-81
2023/01/12 15:27:14;;;;;;;2.90;0.95;;;;;;;;;;4988929;28;20101;-82
2023/01/12 15:29:41;;;;;;;2.65;1.48;;;;;;;;;;4983962;28;20041;-83
2023/01/12 15:32:35;;;;;;;4.45;3.15;;;;;;;;;;4964827;28;20076;-82
2023/01/12 15:35:22;;;;;;;14.43;5.30;;;;;;;;;;4987719;28;20525;-83
2023/01/12 15:37:51;;;;;;;2.95;1.45;;;;;;;;;;4973853;28;20561;-82
2023/01/12 15:40:18;;;;;;;1.55;0.60;;;;;;;;;;4990076;28;20091;-82
2023/01/12 15:42:46;;;;;;;1.35;0.75;;;;;;;;;;4974737;28;20049;-82
2023/01/12 15:45:24;;;;;;;0.90;0.50;;;;;;;;;;4976611;28;20133;-80
2023/01/12 15:47:51;;;;;;;2.72;0.88;;;;;;;;;;4980339;28;20108;-80
2023/01/12 15:50:17;;;;;;;2.13;0.82;;;;;;;;;;4990761;28;20168;-81
2023/01/12 15:52:47;;;;;;;2.47;0.63;;;;;;;;;;4983316;28;20056;-82
2023/01/12 15:55:20;;;;;;;4.43;0.75;;;;;;;;;;4975757;28;21187;-82
2023/01/12 15:57:47;;;;;;;3.13;0.52;;;;;;;;;;4958818;28;20104;-82
2023/01/12 16:00:15;;;;;;;3.92;0.60;;;;;;;;;;4979775;28;20614;-81
2023/01/12 16:02:49;;;;;;;0.95;0.52;;;;;;;;;;4954669;28;20510;-81
2023/01/12 16:05:18;;;;;;;1.55;0.73;;;;;;;;;;4975021;28;20065;-82
2023/01/12 16:07:45;;;;;;;2.65;0.70;;;;;;;;;;4981222;28;20341;-83
2023/01/12 16:10:15;;;;;;;2.28;1.27;;;;;;;;;;4961647;28;20206;-81
2023/01/12 16:12:43;;;;;;;2.28;1.00;;;;;;;;;;4967920;28;20144;-81
2023/01/12 16:15:23;;;;;;;3.25;1.13;;;;;;;;;;4969289;28;20049;-82
2023/01/12 16:17:50;;;;;;;4.30;1.90;;;;;;;;;;4968132;28;20478;-83